Time;durP1;ratioP1;P1;durP2;ratioP2;P2;SDS_P1;SDS_P2;PMS_P1;PMS_P2;Temp;Humidity;BMP_temperature;BMP_pressure;BME280_temperature;BME280_humidity;BME280_pressure;Samples;Min_cycle;Max_cycle;Signal;HPM_P1;HPM_P2
2022/03/30 00:01:03;;;;;;;14.13;5.10;;;;;;;2.45;53.52;99940.97;1693037;84;21026;-76
2022/03/30 00:03:29;;;;;;;11.22;5.80;;;;;;;2.44;53.58;99937.98;1669926;82;327823;-76
2022/03/30 00:05:58;;;;;;;14.98;5.53;;;;;;;2.46;53.66;99938.85;1675930;85;21044;-76
2022/03/30 00:08:24;;;;;;;14.58;6.25;;;;;;;2.45;53.70;99939.27;1686218;84;21100;-76
2022/03/30 00:10:50;;;;;;;15.25;6.10;;;;;;;2.48;53.78;99938.02;1704670;83;21544;-76
2022/03/30 00:13:17;;;;;;;14.40;5.33;;;;;;;2.50;53.82;99940.58;1694141;84;21399;-76
2022/03/30 00:15:44;;;;;;;18.35;5.95;;;;;;;2.51;53.86;99938.45;1679910;84;21529;-76
2022/03/30 00:18:11;;;;;;;15.53;5.80;;;;;;;2.53;53.87;99938.05;1681584;83;21124;-76
2022/03/30 00:20:37;;;;;;;22.05;6.17;;;;;;;2.57;53.95;99937.22;1691250;84;21140;-76
2022/03/30 00:23:03;;;;;;;18.03;6.20;;;;;;;2.62;54.01;99935.09;1697437;83;21705;-76
2022/03/30 00:25:29;;;;;;;19.48;6.47;;;;;;;2.65;54.05;99934.25;1686586;84;21068;-76
2022/03/30 00:27:55;;;;;;;14.55;6.00;;;;;;;2.68;54.10;99932.14;1704469;84;21104;-76
2022/03/30 00:30:22;;;;;;;16.45;6.58;;;;;;;2.71;54.14;99928.32;1704612;84;21128;-77
2022/03/30 00:32:48;;;;;;;13.62;6.00;;;;;;;2.76;54.19;99926.64;1691980;83;21832;-76
2022/03/30 00:35:15;;;;;;;14.40;5.80;;;;;;;2.78;54.18;99924.95;1705548;82;419577;-76
2022/03/30 00:37:42;;;;;;;15.72;5.87;;;;;;;2.79;54.22;99921.12;1740197;82;20980;-76
2022/03/30 00:40:12;;;;;;;12.43;5.22;;;;;;;2.80;54.23;99927.09;1742348;81;21040;-76
2022/03/30 00:42:39;;;;;;;15.85;6.20;;;;;;;2.78;54.27;99925.80;1743358;81;21907;-76
2022/03/30 00:45:16;;;;;;;15.78;6.15;;;;;;;2.77;54.35;99927.08;1743296;81;21060;-76
2022/03/30 00:47:43;;;;;;;13.93;5.72;;;;;;;2.76;54.42;99923.67;1730976;82;20981;-76
2022/03/30 00:50:13;;;;;;;15.23;6.17;;;;;;;2.77;54.42;99925.37;1753435;80;20944;-76
2022/03/30 00:52:39;;;;;;;19.10;6.10;;;;;;;2.79;54.51;99927.94;1775838;80;20932;-76
2022/03/30 00:55:06;;;;;;;21.55;6.72;;;;;;;2.79;54.54;99926.23;1744933;80;20906;-76
2022/03/30 00:57:34;;;;;;;12.33;6.00;;;;;;;2.80;54.60;99927.09;1739943;80;21027;-76
2022/03/30 01:00:01;;;;;;;21.50;6.35;;;;;;;2.82;54.57;99924.97;1741973;81;21101;-76
2022/03/30 01:02:29;;;;;;;16.27;5.70;;;;;;;2.83;54.65;99922.00;1715262;81;20902;-76
2022/03/30 01:04:55;;;;;;;16.65;5.95;;;;;;;2.83;54.66;99919.45;1715180;83;20950;-76
2022/03/30 01:07:26;;;;;;;15.88;5.50;;;;;;;2.84;54.72;99917.32;1741145;80;20893;-76
2022/03/30 01:09:53;;;;;;;20.70;6.33;;;;;;;2.85;54.75;99912.64;1739215;80;20842;-76
2022/03/30 01:12:19;;;;;;;26.42;6.28;;;;;;;2.85;54.79;99912.22;1740606;81;20901;-76
2022/03/30 01:14:45;;;;;;;25.82;6.25;;;;;;;2.85;54.81;99913.92;1728064;82;21022;-76
2022/03/30 01:17:11;;;;;;;14.83;6.05;;;;;;;2.85;54.87;99910.95;1718219;82;21036;-77
2022/03/30 01:19:37;;;;;;;17.90;6.47;;;;;;;2.86;54.88;99910.52;1713586;82;20878;-76
2022/03/30 01:22:07;;;;;;;17.40;6.65;;;;;;;2.86;54.91;99914.34;1732438;82;21699;-76
2022/03/30 01:24:32;;;;;;;19.92;6.90;;;;;;;2.86;54.96;99911.80;1731437;81;21040;-76
2022/03/30 01:26:58;;;;;;;17.85;6.53;;;;;;;2.86;54.98;99909.25;1742158;82;21056;-76
2022/03/30 01:32:26;;;;;;;14.40;6.78;;;;;;;2.85;55.05;99916.05;1742646;82;21037;-76
2022/03/30 01:35:01;;;;;;;12.50;6.08;;;;;;;2.85;55.08;99912.22;1737695;81;21100;-76
2022/03/30 01:37:30;;;;;;;17.20;6.40;;;;;;;2.86;55.14;99910.09;1710958;83;20902;-76
2022/03/30 01:40:03;;;;;;;19.82;6.37;;;;;;;2.86;55.14;99913.08;1709565;81;21041;-76
2022/03/30 01:42:30;;;;;;;13.43;6.50;;;;;;;2.86;55.15;99911.80;1728576;82;20847;-76
2022/03/30 01:44:56;;;;;;;16.80;6.40;;;;;;;2.83;55.20;99907.53;1709099;82;21092;-76
2022/03/30 01:47:22;;;;;;;14.75;6.30;;;;;;;2.83;55.22;99907.95;1717139;82;21740;-76
2022/03/30 01:49:48;;;;;;;20.77;6.35;;;;;;;2.83;55.30;99902.85;1711728;82;21100;-76
2022/03/30 01:52:20;;;;;;;14.30;6.40;;;;;;;2.82;55.30;99903.70;1708938;82;21028;-76
2022/03/30 01:54:44;;;;;;;13.98;6.05;;;;;;;2.81;55.36;99899.02;1736510;82;20894;-76
2022/03/30 01:57:13;;;;;;;;;;;;;;;2.81;55.34;99899.44;1741685;82;20965;-76
2022/03/30 01:59:42;;;;;;;14.43;6.20;;;;;;;2.79;55.67;99895.60;1730682;82;20192;-76
2022/03/30 02:02:09;;;;;;;20.25;6.72;;;;;;;2.77;55.43;99895.17;1708782;82;21044;-76
2022/03/30 02:04:38;;;;;;;15.13;5.08;;;;;;;2.76;55.50;99896.86;1709495;82;21493;-76
2022/03/30 02:07:08;;;;;;;12.53;5.62;;;;;;;2.77;55.54;99892.19;1737397;82;20854;-76
2022/03/30 02:09:38;;;;;;;19.62;6.17;;;;;;;2.78;55.51;99890.06;1717901;82;21123;-76
2022/03/30 02:12:06;;;;;;;17.10;6.25;;;;;;;2.77;55.54;99888.36;1733728;82;21824;-76
2022/03/30 02:14:33;;;;;;;16.30;5.67;;;;;;;2.78;55.58;99887.94;1728408;82;21004;-76
2022/03/30 02:16:59;;;;;;;;;;;;;;;2.78;55.60;99889.21;1712385;82;21557;-76
2022/03/30 02:19:25;;;;;;;15.13;5.87;;;;;;;2.78;55.94;99881.55;1712794;82;26529;-76
2022/03/30 02:21:51;;;;;;;19.20;5.85;;;;;;;2.80;55.71;99884.97;1718204;82;21058;-76
2022/03/30 02:24:17;;;;;;;15.33;5.53;;;;;;;2.79;55.71;99881.56;1735529;82;21013;-76
2022/03/30 02:26:43;;;;;;;20.50;6.03;;;;;;;2.81;55.79;99890.08;1731716;81;21137;-76
2022/03/30 02:29:15;;;;;;;18.92;6.33;;;;;;;2.83;55.75;99889.66;1725268;82;21021;-76
2022/03/30 02:31:42;;;;;;;14.00;6.15;;;;;;;2.84;55.77;99887.53;1736671;82;26909;-76
2022/03/30 02:34:09;;;;;;;15.28;5.90;;;;;;;2.85;55.80;99884.56;1710410;82;21072;-76
2022/03/30 02:36:36;;;;;;;17.17;6.58;;;;;;;2.83;55.86;99876.05;1710774;82;21493;-76
2022/03/30 02:39:04;;;;;;;13.90;6.37;;;;;;;2.86;55.89;99883.72;1709647;82;21388;-76
2022/03/30 02:41:30;;;;;;;11.63;5.05;;;;;;;2.86;55.90;99877.33;1682824;83;21032;-76
2022/03/30 02:43:56;;;;;;;18.95;6.35;;;;;;;2.85;55.89;99887.11;1697924;83;21067;-76
2022/03/30 02:46:22;;;;;;;16.05;5.97;;;;;;;2.85;55.96;99882.86;1724488;82;21051;-76
2022/03/30 02:48:51;;;;;;;12.30;5.70;;;;;;;2.87;55.99;99886.70;1718021;81;21090;-76
2022/03/30 02:51:17;;;;;;;17.30;5.58;;;;;;;2.88;56.02;99884.15;1739692;82;20899;-76
2022/03/30 02:53:45;;;;;;;14.53;5.60;;;;;;;2.88;56.02;99880.31;1739793;81;20863;-76
2022/03/30 02:56:11;;;;;;;14.63;5.53;;;;;;;2.90;56.06;99882.88;1740076;81;20890;-76
2022/03/30 02:58:37;;;;;;;17.37;5.03;;;;;;;2.91;56.06;99877.77;1731149;82;20881;-76
2022/03/30 03:01:04;;;;;;;17.07;5.67;;;;;;;2.91;56.06;99880.75;1710672;82;20961;-76
2022/03/30 03:03:30;;;;;;;19.42;5.78;;;;;;;2.91;56.11;99883.30;1735455;80;20859;-76
2022/03/30 03:05:55;;;;;;;11.63;4.70;;;;;;;2.88;56.15;99873.94;1712422;82;20862;-76
2022/03/30 03:08:21;;;;;;;12.43;5.07;;;;;;;2.88;56.19;99879.04;1724091;82;20993;-76
2022/03/30 03:10:50;;;;;;;14.78;4.95;;;;;;;2.87;56.20;99873.50;1709576;82;20997;-76
2022/03/30 03:13:17;;;;;;;19.20;5.22;;;;;;;2.88;56.17;99881.59;1718550;82;20945;-76
2022/03/30 03:15:46;;;;;;;11.55;4.87;;;;;;;2.86;56.16;99883.72;1711006;82;21043;-76
2022/03/30 03:18:13;;;;;;;18.37;4.97;;;;;;;2.83;56.19;99887.11;1719017;82;20912;-76
2022/03/30 03:20:43;;;;;;;9.15;4.42;;;;;;;2.80;56.16;99884.55;1732211;82;21537;-76
2022/03/30 03:23:10;;;;;;;10.93;4.67;;;;;;;2.78;56.21;99891.77;1716454;82;20870;-76
2022/03/30 03:25:37;;;;;;;10.95;5.10;;;;;;;2.75;56.21;99888.78;1722836;82;20894;-76
2022/03/30 03:28:05;;;;;;;13.20;5.08;;;;;;;2.74;56.26;99883.66;1727835;82;20914;-76
2022/03/30 03:30:31;;;;;;;16.15;6.17;;;;;;;2.72;56.30;99887.91;1725064;82;20862;-77
2022/03/30 03:32:58;;;;;;;12.63;5.20;;;;;;;2.71;56.31;99886.20;1710866;83;20941;-76
2022/03/30 03:35:25;;;;;;;13.20;5.17;;;;;;;2.69;56.30;99883.65;1725172;82;20906;-76
2022/03/30 03:37:51;;;;;;;12.73;5.90;;;;;;;2.65;56.29;99887.03;1710315;82;20941;-76
2022/03/30 03:40:17;;;;;;;12.13;5.10;;;;;;;2.61;56.37;99891.27;1710569;83;20918;-76
2022/03/30 03:42:43;;;;;;;12.07;5.30;;;;;;;2.59;56.37;99885.77;1722902;82;20902;-76
2022/03/30 03:45:10;;;;;;;14.83;5.85;;;;;;;2.56;56.38;99885.75;1723075;82;20913;-76
2022/03/30 03:47:36;;;;;;;15.10;5.55;;;;;;;2.52;56.38;99889.13;1727282;82;25737;-76
2022/03/30 03:50:03;;;;;;;11.33;4.58;;;;;;;2.45;56.37;99883.56;1730368;82;20929;-76
2022/03/30 03:52:31;;;;;;;12.55;4.67;;;;;;;2.38;56.37;99877.58;1724199;81;20902;-76
2022/03/30 03:54:58;;;;;;;13.40;4.70;;;;;;;2.32;56.41;99890.30;1726955;82;20902;-77
2022/03/30 03:57:23;;;;;;;19.90;5.03;;;;;;;2.26;56.41;99891.11;1722959;82;21505;-77
2022/03/30 03:59:49;;;;;;;16.47;5.43;;;;;;;2.21;56.44;99888.10;1742975;80;20835;-76
2022/03/30 04:02:15;;;;;;;12.23;5.50;;;;;;;2.15;56.46;99888.92;1738018;81;20961;-76
2022/03/30 04:04:41;;;;;;;10.27;4.60;;;;;;;2.11;56.50;99883.37;1738305;81;21613;-76
2022/03/30 04:07:07;;;;;;;14.93;5.80;;;;;;;2.08;56.50;99884.63;1734992;81;21097;-77
2022/03/30 04:09:33;;;;;;;12.90;5.37;;;;;;;2.02;56.51;99886.31;1734014;82;21660;-76
2022/03/30 04:11:59;;;;;;;13.20;6.00;;;;;;;1.96;56.54;99883.30;1728109;82;21422;-77
2022/03/30 04:14:25;;;;;;;20.40;7.53;;;;;;;1.90;56.53;99884.11;1732253;82;21052;-76
2022/03/30 04:16:52;;;;;;;17.12;7.53;;;;;;;1.83;56.56;99883.62;1732084;82;25810;-77
2022/03/30 04:19:18;;;;;;;15.05;6.85;;;;;;;1.78;56.57;99880.19;1725520;81;20977;-76
2022/03/30 04:21:45;;;;;;;20.62;7.17;;;;;;;1.73;56.62;99883.12;1719387;82;20882;-76
2022/03/30 04:24:12;;;;;;;19.40;7.25;;;;;;;1.66;56.67;99880.09;1726738;82;21402;-76
2022/03/30 04:26:39;;;;;;;14.10;6.15;;;;;;;1.60;56.63;99879.62;1715483;82;20920;-76
2022/03/30 04:29:06;;;;;;;17.30;7.22;;;;;;;1.55;56.70;99880.03;1735880;82;20901;-76
2022/03/30 04:31:32;;;;;;;15.32;6.35;;;;;;;1.51;56.69;99881.27;1726507;82;21513;-76
2022/03/30 04:33:58;;;;;;;19.55;7.42;;;;;;;1.45;56.70;99874.84;1717365;82;21030;-76
2022/03/30 04:36:26;;;;;;;21.68;8.00;;;;;;;1.39;56.75;99882.01;1732586;81;21612;-76
2022/03/30 04:38:53;;;;;;;19.30;7.47;;;;;;;1.35;56.74;99878.14;1739878;81;21081;-76
2022/03/30 04:41:19;;;;;;;19.15;7.00;;;;;;;1.29;56.79;99884.03;1748313;81;21053;-76
2022/03/30 04:43:46;;;;;;;23.07;7.30;;;;;;;1.25;56.81;99887.39;1741025;81;21511;-76
2022/03/30 04:46:13;;;;;;;;;;;;;;;1.23;56.89;99887.37;1738101;81;20862;-76
2022/03/30 04:48:39;;;;;;;;;;;;;;;1.22;57.22;99888.20;1725112;81;20137;-76
2022/03/30 04:51:05;;;;;;;16.27;5.78;;;;;;;1.18;57.22;99890.70;1714629;82;21472;-76
2022/03/30 04:53:31;;;;;;;13.25;6.33;;;;;;;1.14;56.93;99891.52;1732440;81;21032;-76
2022/03/30 04:55:58;;;;;;;13.85;7.00;;;;;;;1.10;56.96;99889.36;1733941;81;20965;-76
2022/03/30 04:58:30;;;;;;;15.83;7.40;;;;;;;1.09;57.00;99890.61;1734599;81;21088;-76
2022/03/30 05:00:56;;;;;;;16.80;7.72;;;;;;;1.10;57.08;99887.23;1740255;81;21120;-76
2022/03/30 05:03:22;;;;;;;19.27;7.22;;;;;;;1.10;57.17;99888.08;1729377;82;20933;-76
2022/03/30 05:05:50;;;;;;;18.30;6.42;;;;;;;1.14;57.19;99887.70;1733539;81;21072;-75
2022/03/30 05:08:17;;;;;;;22.93;8.15;;;;;;;1.15;57.17;99888.98;1718878;82;21682;-75
2022/03/30 05:10:48;;;;;;;21.52;7.28;;;;;;;1.16;57.23;99886.87;1711223;82;21041;-75
2022/03/30 05:13:15;;;;;;;17.50;7.33;;;;;;;1.17;57.28;99887.73;1736286;82;21576;-75
2022/03/30 05:15:41;;;;;;;;;;;;;;;1.20;57.31;99892.44;1738462;81;21539;-75
2022/03/30 05:18:07;;;;;;;;;;;;;;;1.24;57.78;99892.90;1743071;81;20806;-75
2022/03/30 05:20:34;;;;;;;16.23;6.33;;;;;;;1.28;57.81;99889.96;1731573;81;20776;-75
2022/03/30 05:23:00;;;;;;;23.22;7.80;;;;;;;1.31;57.53;99889.99;1729338;81;21465;-75
2022/03/30 05:25:26;;;;;;;14.78;6.47;;;;;;;1.38;57.59;99893.45;1747812;81;21025;-75
2022/03/30 05:27:52;;;;;;;21.33;6.15;;;;;;;1.45;57.62;99893.53;1714771;81;21052;-75
2022/03/30 05:30:19;;;;;;;30.43;6.65;;;;;;;1.53;57.69;99898.27;1736801;81;21061;-76
2022/03/30 05:32:48;;;;;;;117.25;12.07;;;;;;;1.62;57.71;99906.38;1729128;81;21070;-75
2022/03/30 05:35:14;;;;;;;89.77;10.00;;;;;;;1.70;57.77;99908.58;1726796;81;21064;-75
2022/03/30 05:37:40;;;;;;;144.87;12.90;;;;;;;1.79;57.76;99907.38;1730703;81;21007;-75
2022/03/30 05:40:09;;;;;;;90.95;10.08;;;;;;;1.90;57.87;99899.40;1726571;81;21475;-75
2022/03/30 05:42:36;;;;;;;43.50;8.05;;;;;;;2.04;57.96;99900.77;1722573;81;20877;-76
2022/03/30 05:45:04;;;;;;;22.30;5.45;;;;;;;2.20;58.01;99900.42;1731862;81;20953;-76
2022/03/30 05:47:30;;;;;;;16.57;5.12;;;;;;;2.33;58.02;99900.94;1725523;81;20866;-75
2022/03/30 05:49:57;;;;;;;12.40;4.78;;;;;;;2.46;58.10;99900.16;1767612;81;20916;-75
2022/03/30 05:52:23;;;;;;;10.70;4.83;;;;;;;2.63;58.16;99899.78;1726837;81;20938;-75
2022/03/30 05:54:50;;;;;;;14.33;5.70;;;;;;;2.80;58.19;99902.41;1728553;81;20882;-76
2022/03/30 05:57:16;;;;;;;16.12;4.70;;;;;;;2.97;58.27;99905.03;1732834;82;21438;-76
2022/03/30 05:59:43;;;;;;;11.85;3.98;;;;;;;3.11;58.26;99909.76;1738155;81;20902;-75
2022/03/30 06:02:12;;;;;;;10.48;3.98;;;;;;;3.23;58.22;99914.87;1716110;81;20858;-76
2022/03/30 06:04:41;;;;;;;13.35;4.85;;;;;;;3.33;58.29;99915.74;1723775;82;20949;-75
2022/03/30 06:07:08;;;;;;;12.98;4.62;;;;;;;3.49;58.41;99920.03;1734595;81;20926;-76
2022/03/30 06:09:34;;;;;;;14.50;4.28;;;;;;;3.65;58.40;99914.06;1729333;81;20942;-75
2022/03/30 06:12:08;;;;;;;10.78;4.35;;;;;;;3.88;58.53;99910.23;1730382;81;21084;-75
2022/03/30 06:14:32;;;;;;;16.77;3.85;;;;;;;4.17;58.88;99914.02;1732302;82;20942;-75
2022/03/30 06:17:04;;;;;;;10.80;4.10;;;;;;;4.47;58.55;99908.42;1732444;82;21651;-75
2022/03/30 06:19:32;;;;;;;11.25;3.80;;;;;;;4.76;58.64;99907.02;1727355;81;21068;-75
2022/03/30 06:21:59;;;;;;;14.50;4.70;;;;;;;5.09;58.66;99912.00;1728409;82;21025;-75
2022/03/30 06:24:25;;;;;;;15.23;4.05;;;;;;;5.41;58.73;99911.80;1722465;82;21061;-75
2022/03/30 06:26:51;;;;;;;13.25;3.92;;;;;;;5.64;58.65;99904.80;1727979;82;21095;-77
2022/03/30 06:29:18;;;;;;;14.05;4.08;;;;;;;5.93;58.77;99905.86;1732665;82;21112;-76
2022/03/30 06:31:44;;;;;;;;;;;;;;;6.23;58.84;99907.30;1727367;81;21056;-75
2022/03/30 06:34:10;;;;;;;10.45;3.47;;;;;;;6.51;58.52;99905.27;1721101;82;20199;-75
2022/03/30 06:36:38;;;;;;;10.57;4.17;;;;;;;6.69;58.71;99906.78;1732816;82;20961;-75
2022/03/30 06:39:05;;;;;;;8.83;3.95;;;;;;;6.95;58.79;99909.02;1731099;82;21005;-75
2022/03/30 06:41:32;;;;;;;9.23;3.70;;;;;;;7.19;58.65;99910.42;1728049;81;21087;-77
2022/03/30 06:43:59;;;;;;;7.83;3.33;;;;;;;7.38;58.65;99909.70;1731647;81;21098;-76
2022/03/30 06:46:26;;;;;;;10.23;3.55;;;;;;;7.56;58.77;99913.30;1730131;82;21033;-76
2022/03/30 06:48:52;;;;;;;12.78;3.87;;;;;;;7.78;58.63;99910.80;1727555;81;21052;-75
2022/03/30 06:51:18;;;;;;;11.53;3.63;;;;;;;7.83;58.59;99909.41;1724769;82;21040;-76
2022/03/30 06:53:44;;;;;;;8.63;3.12;;;;;;;7.88;58.44;99913.61;1733530;82;21045;-76
2022/03/30 06:56:11;;;;;;;9.38;3.77;;;;;;;7.86;58.45;99919.66;1729555;81;21007;-76
2022/03/30 06:58:40;;;;;;;8.83;3.37;;;;;;;7.89;58.49;99917.89;1735215;82;21092;-75
2022/03/30 07:01:08;;;;;;;9.35;3.27;;;;;;;8.08;58.79;99916.30;1729541;81;20961;-76
2022/03/30 07:03:34;;;;;;;13.03;3.02;;;;;;;8.28;58.53;99916.80;1727241;81;21021;-77
2022/03/30 07:06:03;;;;;;;8.33;3.00;;;;;;;8.28;58.35;99920.23;1725865;82;21013;-76
2022/03/30 07:11:17;;;;;;;5.62;2.33;;;;;;;8.56;58.62;99913.29;1731296;82;21025;-75
2022/03/30 07:13:44;;;;;;;4.80;2.40;;;;;;;8.73;58.37;99916.39;1727431;81;21045;-76
2022/03/30 07:16:11;;;;;;;9.38;2.27;;;;;;;8.76;58.19;99920.20;1689137;83;21554;-75
2022/03/30 07:18:37;;;;;;;8.58;2.42;;;;;;;9.05;58.39;99914.42;1704553;82;21111;-76
2022/03/30 07:21:03;;;;;;;10.35;2.92;;;;;;;9.46;58.07;99917.37;1723278;82;21064;-76
2022/03/30 07:23:29;;;;;;;4.92;2.30;;;;;;;9.67;57.82;99923.77;1731809;81;21089;-76
2022/03/30 07:26:00;;;;;;;6.28;2.35;;;;;;;9.74;57.27;99923.19;1728911;81;21496;-76
2022/03/30 07:28:24;;;;;;;5.47;2.42;;;;;;;9.74;57.53;99920.61;1725939;81;20996;-76
2022/03/30 07:30:52;;;;;;;7.05;2.75;;;;;;;9.76;57.40;99921.42;1733753;82;21502;-76
2022/03/30 07:33:18;;;;;;;6.80;2.27;;;;;;;9.83;57.43;99922.53;1731106;82;21512;-76
2022/03/30 07:35:46;;;;;;;5.57;2.60;;;;;;;10.05;57.56;99924.13;1725156;82;21105;-76
2022/03/30 07:38:17;;;;;;;6.12;2.60;;;;;;;10.31;57.34;99920.91;1703069;82;21008;-76
2022/03/30 07:40:47;;;;;;;6.83;2.25;;;;;;;10.38;57.09;99934.08;1724650;82;21571;-76
2022/03/30 07:43:14;;;;;;;6.53;2.52;;;;;;;10.39;56.94;99930.61;1721764;82;20941;-77
2022/03/30 07:45:41;;;;;;;10.00;2.58;;;;;;;10.27;56.72;99934.35;1724992;81;20976;-75
2022/03/30 07:48:12;;;;;;;8.65;2.83;;;;;;;10.40;56.80;99926.28;1726182;81;21359;-77
2022/03/30 07:50:39;;;;;;;5.92;2.70;;;;;;;10.62;56.74;99926.09;1723368;82;20965;-76
2022/03/30 07:53:08;;;;;;;9.15;3.00;;;;;;;10.82;56.58;99924.25;1724436;82;20988;-76
2022/03/30 07:55:35;;;;;;;46.08;5.50;;;;;;;10.94;56.30;99932.93;1734045;81;21048;-76
2022/03/30 07:58:02;;;;;;;7.70;3.17;;;;;;;10.97;56.28;99928.12;1732863;82;20969;-76
2022/03/30 08:00:29;;;;;;;6.67;3.10;;;;;;;10.86;56.03;99929.74;1727417;81;27625;-76
2022/03/30 08:02:55;;;;;;;;;;;;;;;10.86;55.92;99930.59;1747335;81;21497;-76
2022/03/30 08:05:21;;;;;;;4.12;2.25;;;;;;;10.89;55.44;99928.36;1734021;82;20778;-76
2022/03/30 08:07:50;;;;;;;8.45;2.65;;;;;;;11.00;55.60;99929.32;1727180;81;21049;-76
2022/03/30 08:10:17;;;;;;;6.28;2.50;;;;;;;10.80;54.30;99925.59;1732283;82;21099;-77
2022/03/30 08:12:44;;;;;;;6.83;2.98;;;;;;;10.43;55.14;99921.00;1724780;81;20953;-77
2022/03/30 08:15:13;;;;;;;4.55;2.00;;;;;;;10.47;55.45;99920.88;1725299;82;21023;-76
2022/03/30 08:17:41;;;;;;;5.47;2.62;;;;;;;10.72;55.42;99917.64;1708138;82;21021;-76
2022/03/30 08:20:12;;;;;;;7.15;1.80;;;;;;;10.87;55.20;99918.50;1724127;82;21287;-76
2022/03/30 08:22:38;;;;;;;4.22;1.77;;;;;;;10.88;54.69;99917.61;1723737;82;20933;-76
2022/03/30 08:25:07;;;;;;;3.67;1.77;;;;;;;10.84;54.55;99919.88;1722814;82;21266;-77
2022/03/30 08:27:35;;;;;;;4.55;2.02;;;;;;;10.79;54.36;99915.28;1726450;81;22132;-76
2022/03/30 08:30:04;;;;;;;6.50;1.82;;;;;;;10.81;54.12;99910.47;1721793;81;21039;-77
2022/03/30 08:32:30;;;;;;;4.42;2.02;;;;;;;10.91;53.95;99922.70;1730775;82;21524;-76
2022/03/30 08:34:56;;;;;;;4.80;1.63;;;;;;;11.02;51.45;99912.02;1721648;82;21088;-78
2022/03/30 08:37:23;;;;;;;4.17;1.67;;;;;;;10.87;53.17;99915.47;1725803;82;21744;-76
2022/03/30 08:39:53;;;;;;;5.25;2.02;;;;;;;10.79;52.29;99916.58;1722301;81;21318;-76
2022/03/30 08:42:21;;;;;;;6.03;2.65;;;;;;;10.65;52.47;99923.42;1724654;82;20973;-76
2022/03/30 08:44:47;;;;;;;8.38;2.40;;;;;;;10.54;52.70;99918.98;1735372;82;20981;-76
2022/03/30 08:47:14;;;;;;;5.70;2.77;;;;;;;10.55;52.75;99917.66;1722570;82;21056;-76
2022/03/30 08:49:42;;;;;;;4.65;2.10;;;;;;;10.55;51.19;99911.19;1729213;81;21458;-76
2022/03/30 08:52:11;;;;;;;8.90;2.47;;;;;;;10.23;51.92;99916.38;1731271;82;21057;-76
2022/03/30 08:54:43;;;;;;;4.92;2.33;;;;;;;10.13;51.59;99911.02;1738403;81;21254;-76
2022/03/30 08:57:10;;;;;;;3.70;2.35;;;;;;;10.11;51.91;99911.50;1724847;81;21040;-76
2022/03/30 08:59:36;;;;;;;5.00;1.72;;;;;;;10.12;51.66;99914.48;1726420;81;21032;-76
2022/03/30 09:02:03;;;;;;;5.53;2.17;;;;;;;9.85;50.54;99913.45;1719505;81;21436;-77
2022/03/30 09:04:29;;;;;;;4.10;2.40;;;;;;;9.53;50.37;99912.92;1734504;81;28662;-76
2022/03/30 09:06:59;;;;;;;5.60;2.45;;;;;;;9.39;50.47;99908.51;1744906;81;21096;-76
2022/03/30 09:09:35;;;;;;;4.67;2.12;;;;;;;9.35;50.71;99907.77;1729305;82;20890;-76
2022/03/30 09:12:08;;;;;;;6.72;2.02;;;;;;;9.33;50.41;99908.67;1728299;82;26931;-77
2022/03/30 09:14:39;;;;;;;4.50;2.00;;;;;;;9.19;50.03;99907.69;1732863;81;21208;-76
2022/03/30 09:17:09;;;;;;;6.03;1.75;;;;;;;9.05;49.74;99906.69;1722288;82;21094;-76
2022/03/30 09:19:38;;;;;;;3.40;2.12;;;;;;;9.01;49.69;99905.50;1726638;81;21084;-76
2022/03/30 09:22:12;;;;;;;5.83;1.90;;;;;;;8.98;49.64;99913.30;1727918;81;21089;-76
2022/03/30 09:24:41;;;;;;;6.22;1.75;;;;;;;8.99;49.64;99908.11;1723276;81;21000;-76
2022/03/30 09:27:09;;;;;;;9.73;2.10;;;;;;;9.00;49.62;99896.91;1731453;82;20933;-76
2022/03/30 09:29:42;;;;;;;15.80;2.10;;;;;;;9.07;49.36;99894.61;1729621;81;20989;-76
2022/03/30 09:32:08;;;;;;;;;;;;;;;8.96;48.54;99909.45;1718542;82;20910;-76
2022/03/30 09:34:47;;;;;;;5.17;1.35;;;;;;;8.86;48.50;99906.66;1735386;81;20146;-76
2022/03/30 09:37:15;;;;;;;4.17;1.27;;;;;;;8.88;48.69;99898.45;1727583;82;20966;-76
2022/03/30 09:39:43;;;;;;;43.70;3.42;;;;;;;8.90;48.96;99900.56;1734641;82;20993;-76
2022/03/30 09:42:14;;;;;;;3.35;1.17;;;;;;;8.94;48.93;99897.04;1731591;81;21086;-76
2022/03/30 09:44:53;;;;;;;3.37;1.00;;;;;;;9.05;48.82;99901.97;1728155;82;21061;-75
2022/03/30 09:47:21;;;;;;;1.75;0.80;;;;;;;9.09;48.44;99899.73;1733276;82;21069;-75
2022/03/30 09:49:52;;;;;;;1.75;0.75;;;;;;;9.12;48.38;99901.81;1732111;82;21577;-75
2022/03/30 09:52:26;;;;;;;1.15;0.57;;;;;;;9.16;48.19;99900.86;1734273;82;21350;-77
2022/03/30 09:54:58;;;;;;;2.05;0.70;;;;;;;9.20;48.19;99897.34;1730150;82;20914;-75
2022/03/30 09:57:38;;;;;;;2.95;0.82;;;;;;;9.25;47.17;99899.38;1727610;81;20922;-75
2022/03/30 10:00:15;;;;;;;4.47;1.00;;;;;;;9.11;47.53;99894.11;1736405;82;20938;-75
2022/03/30 10:02:47;;;;;;;3.75;0.72;;;;;;;9.05;47.36;99896.81;1734590;81;21395;-75
2022/03/30 10:05:15;;;;;;;2.05;0.70;;;;;;;8.90;46.75;99891.09;1738432;81;20907;-75
2022/03/30 10:07:42;;;;;;;0.98;0.50;;;;;;;8.84;47.32;99891.66;1739072;81;20902;-75
2022/03/30 10:10:12;;;;;;;1.67;1.02;;;;;;;8.87;46.73;99890.31;1736739;82;20918;-75
2022/03/30 10:12:39;;;;;;;1.90;0.80;;;;;;;8.85;46.96;99890.78;1738527;82;20945;-75
2022/03/30 10:15:08;;;;;;;3.47;0.93;;;;;;;8.99;46.12;99892.63;1730570;82;20898;-75
2022/03/30 10:17:36;;;;;;;9.05;1.07;;;;;;;8.99;46.58;99891.34;1725425;81;20937;-75
2022/03/30 10:20:04;;;;;;;1.30;0.70;;;;;;;8.98;46.24;99895.24;1735452;81;21721;-75
2022/03/30 10:23:08;;;;;;;1.77;0.78;;;;;;;8.91;46.17;99897.09;1734531;81;21390;-76
2022/03/30 10:25:49;;;;;;;1.92;0.80;;;;;;;8.82;46.28;99883.14;1731622;81;21395;-75
2022/03/30 10:28:26;;;;;;;3.27;0.98;;;;;;;8.90;46.35;99878.64;1727473;81;20929;-75
2022/03/30 10:30:57;;;;;;;3.67;0.90;;;;;;;9.01;46.08;99879.71;1733051;81;21733;-75
2022/03/30 10:33:33;;;;;;;1.87;0.75;;;;;;;9.01;45.90;99862.51;1736661;82;21734;-75
2022/03/30 10:36:21;;;;;;;1.92;1.10;;;;;;;9.02;45.85;99878.39;1721923;82;21379;-75
2022/03/30 10:39:24;;;;;;;1.52;1.10;;;;;;;8.98;45.25;99878.48;1738335;80;21020;-75
2022/03/30 10:41:51;;;;;;;2.85;1.35;;;;;;;8.87;45.50;99879.55;1737162;81;21378;-76
2022/03/30 10:44:46;;;;;;;2.45;1.47;;;;;;;8.77;45.69;99872.08;1735583;81;20941;-75
2022/03/30 10:47:17;;;;;;;4.90;1.75;;;;;;;8.79;45.50;99871.16;1724283;81;20906;-75
2022/03/30 10:49:51;;;;;;;7.87;1.60;;;;;;;8.84;45.55;99868.45;1601158;81;10000577;-75
2022/03/30 10:52:44;;;;;;;8.48;1.20;;;;;;;8.85;45.23;99870.16;1717209;81;21529;-75
2022/03/30 10:55:19;;;;;;;0.72;0.65;;;;;;;8.82;45.23;99859.94;1725077;82;21466;-74
2022/03/30 10:57:51;;;;;;;1.70;0.85;;;;;;;8.86;45.25;99857.67;1638951;84;21426;-75
2022/03/30 11:00:23;;;;;;;1.35;0.68;;;;;;;8.99;44.94;99860.84;1638019;86;21908;-75
2022/03/30 11:02:50;;;;;;;1.60;0.90;;;;;;;9.00;44.73;99858.67;1637056;85;21609;-75
2022/03/30 11:05:19;;;;;;;;;;;;;;;9.01;44.84;99865.09;1639394;86;21531;-75
2022/03/30 11:07:46;;;;;;;2.67;0.90;;;;;;;9.02;43.43;99862.91;1628677;86;20679;-74
2022/03/30 11:10:31;;;;;;;1.53;0.90;;;;;;;9.01;44.62;99862.95;1631241;86;21475;-75
2022/03/30 11:13:02;;;;;;;3.75;0.93;;;;;;;9.00;43.69;99867.70;1627366;86;22625;-75
2022/03/30 11:16:00;;;;;;;3.08;1.30;;;;;;;8.95;44.18;99873.80;1625201;86;21523;-75
2022/03/30 11:18:28;;;;;;;1.95;0.80;;;;;;;8.98;44.23;99865.59;1628167;87;21096;-75
2022/03/30 11:21:18;;;;;;;2.08;0.70;;;;;;;9.06;44.26;99869.70;1631278;87;20933;-74
2022/03/30 11:24:10;;;;;;;1.67;0.88;;;;;;;9.09;44.11;99867.50;1627600;87;21763;-75
2022/03/30 11:26:53;;;;;;;2.92;1.05;;;;;;;9.04;44.12;99863.73;1627348;87;20985;-75
2022/03/30 11:29:49;;;;;;;1.72;1.00;;;;;;;9.01;43.79;99861.66;1630912;87;21006;-74
2022/03/30 11:32:31;;;;;;;4.08;0.98;;;;;;;8.98;43.88;99860.44;1631934;87;21442;-74
2022/03/30 11:35:01;;;;;;;2.30;1.65;;;;;;;9.02;43.97;99867.22;1656555;84;21414;-74
2022/03/30 11:37:35;;;;;;;1.45;1.17;;;;;;;9.08;43.97;99864.07;1673186;84;21064;-74
2022/03/30 11:40:12;;;;;;;1.12;0.70;;;;;;;9.07;43.82;99862.38;1686821;83;21049;-74
2022/03/30 11:42:42;;;;;;;1.05;0.53;;;;;;;9.14;43.45;99862.65;1741775;82;21084;-74
2022/03/30 11:45:15;;;;;;;1.52;0.82;;;;;;;9.13;43.24;99863.97;1740733;81;21683;-75
2022/03/30 11:47:53;;;;;;;1.40;0.70;;;;;;;9.09;43.03;99863.63;1741957;82;20933;-75
2022/03/30 11:50:34;;;;;;;1.47;0.78;;;;;;;9.05;43.40;99861.56;1739939;81;21425;-75
2022/03/30 11:53:08;;;;;;;1.72;0.80;;;;;;;9.12;43.33;99860.98;1737733;81;20929;-75